createdAt,value
2019-03-25T00:01:56.885Z,9.87
2019-03-25T00:04:27.773Z,8.87
2019-03-25T00:06:58.723Z,10.10
2019-03-25T00:09:29.633Z,10.40
2019-03-25T00:12:00.569Z,9.87
2019-03-25T00:14:31.541Z,8.87
2019-03-25T00:17:02.726Z,8.90
2019-03-25T00:19:33.622Z,8.50
2019-03-25T00:22:04.606Z,9.47
2019-03-25T00:24:39.037Z,8.40
2019-03-25T00:27:09.056Z,7.40
2019-03-25T00:29:39.944Z,7.73
2019-03-25T00:32:10.859Z,6.97
2019-03-25T00:34:41.754Z,7.33
2019-03-25T00:37:13.489Z,8.10
2019-03-25T00:39:44.399Z,6.60
2019-03-25T00:42:15.323Z,8.53
2019-03-25T00:44:46.229Z,8.10
2019-03-25T00:47:17.155Z,7.33
2019-03-25T00:49:48.042Z,8.20
2019-03-25T00:52:18.985Z,7.53
2019-03-25T00:54:50.448Z,9.20
2019-03-25T00:57:21.355Z,9.53
2019-03-25T00:59:52.251Z,9.37
2019-03-25T01:02:24.056Z,7.93
2019-03-25T01:04:54.945Z,8.27
2019-03-25T01:07:26.772Z,7.93
2019-03-25T01:09:57.668Z,8.33
2019-03-25T01:12:28.602Z,9.40
2019-03-25T01:14:59.562Z,7.60
2019-03-25T01:17:35.712Z,7.83
2019-03-25T01:20:07.280Z,7.03
2019-03-25T01:22:40.220Z,6.93
2019-03-25T01:25:11.274Z,6.33
2019-03-25T01:27:42.205Z,6.20
2019-03-25T01:30:13.200Z,6.07
2019-03-25T01:32:44.123Z,6.73
2019-03-25T01:35:15.010Z,5.67
2019-03-25T01:37:47.852Z,5.73
2019-03-25T01:40:18.745Z,6.23
2019-03-25T01:42:49.666Z,5.80
2019-03-25T01:45:20.670Z,5.83
2019-03-25T01:47:51.588Z,5.97
2019-03-25T01:50:22.487Z,6.30
2019-03-25T01:52:53.436Z,4.97
2019-03-25T01:55:24.326Z,5.87
2019-03-25T01:57:55.248Z,5.07
2019-03-25T02:00:26.151Z,5.27
2019-03-25T02:02:57.093Z,5.17
2019-03-25T02:05:27.989Z,5.57
2019-03-25T02:07:59.742Z,4.97
2019-03-25T02:10:30.642Z,4.90
2019-03-25T02:13:01.569Z,4.83
2019-03-25T02:15:32.463Z,4.73
2019-03-25T02:18:03.382Z,4.20
2019-03-25T02:20:34.268Z,4.57
2019-03-25T02:23:06.252Z,4.27
2019-03-25T02:25:38.074Z,4.37
2019-03-25T02:28:08.993Z,4.40
2019-03-25T02:30:39.904Z,4.73
2019-03-25T02:33:10.833Z,5.57
2019-03-25T02:35:41.722Z,3.93
2019-03-25T02:38:12.691Z,4.20
2019-03-25T02:40:43.570Z,4.33
2019-03-25T02:43:14.494Z,4.90
2019-03-25T02:45:45.402Z,4.93
2019-03-25T02:48:16.309Z,4.43
2019-03-25T02:50:47.212Z,4.57
2019-03-25T02:53:18.152Z,5.27
2019-03-25T02:55:49.043Z,4.47
2019-03-25T02:58:19.987Z,4.33
2019-03-25T03:00:53.225Z,4.87
2019-03-25T03:03:24.239Z,4.70
2019-03-25T03:05:55.130Z,5.83
2019-03-25T03:08:26.081Z,4.87
2019-03-25T03:10:57.040Z,4.13
2019-03-25T03:13:28.017Z,4.40
2019-03-25T03:15:59.014Z,4.83
2019-03-25T03:18:29.952Z,4.27
2019-03-25T03:21:02.828Z,4.10
2019-03-25T03:23:33.783Z,4.13
2019-03-25T03:26:04.664Z,4.37
2019-03-25T03:28:35.589Z,4.40
2019-03-25T03:31:06.583Z,4.77
2019-03-25T03:33:37.498Z,4.53
2019-03-25T03:36:08.393Z,4.43
2019-03-25T03:38:39.347Z,4.57
2019-03-25T03:41:10.262Z,4.30
2019-03-25T03:43:41.260Z,4.70
2019-03-25T03:46:12.146Z,4.67
2019-03-25T03:48:43.074Z,4.47
2019-03-25T03:51:13.972Z,5.00
2019-03-25T03:53:45.045Z,4.67
2019-03-25T03:56:16.029Z,4.80
2019-03-25T03:58:47.059Z,4.43
2019-03-25T04:01:17.942Z,4.00
2019-03-25T04:03:48.881Z,5.03
2019-03-25T04:06:19.770Z,4.20
2019-03-25T04:08:51.573Z,4.57
2019-03-25T04:11:22.472Z,5.07
2019-03-25T04:13:53.460Z,4.30
2019-03-25T04:16:24.427Z,3.90
2019-03-25T04:18:55.353Z,4.97
2019-03-25T04:21:26.263Z,5.53
2019-03-25T04:23:57.224Z,5.60
2019-03-25T04:26:29.676Z,6.00
2019-03-25T04:29:00.669Z,5.37
2019-03-25T04:31:31.565Z,5.40
2019-03-25T04:34:02.496Z,5.57
2019-03-25T04:36:33.407Z,5.57
2019-03-25T04:39:06.062Z,5.30
2019-03-25T04:41:39.545Z,4.90
2019-03-25T04:44:10.539Z,6.23
2019-03-25T04:46:45.679Z,4.70
2019-03-25T04:49:16.618Z,4.53
2019-03-25T04:51:47.582Z,5.17
2019-03-25T04:54:19.338Z,4.30
2019-03-25T04:56:50.235Z,5.40
2019-03-25T04:59:21.176Z,5.20
2019-03-25T05:01:52.065Z,4.87
2019-03-25T05:04:22.989Z,5.43
2019-03-25T05:06:53.892Z,5.23
2019-03-25T05:09:24.837Z,8.97
2019-03-25T05:11:55.735Z,11.60
2019-03-25T05:14:26.665Z,16.10
2019-03-25T05:16:57.566Z,15.03
2019-03-25T05:19:28.500Z,23.63
2019-03-25T05:21:59.411Z,28.30
2019-03-25T05:24:30.430Z,32.30
2019-03-25T05:27:02.127Z,23.23
2019-03-25T05:29:33.056Z,12.00
2019-03-25T05:32:03.969Z,6.53
2019-03-25T05:34:34.881Z,5.93
2019-03-25T05:37:05.851Z,7.23
2019-03-25T05:39:37.590Z,7.67
2019-03-25T05:42:08.484Z,8.80
2019-03-25T05:44:39.419Z,12.27
2019-03-25T05:47:10.387Z,36.50
2019-03-25T05:49:41.318Z,49.80
2019-03-25T05:52:12.240Z,35.00
2019-03-25T05:54:43.990Z,23.50
2019-03-25T05:57:14.896Z,19.03
2019-03-25T05:59:45.826Z,15.47
2019-03-25T06:02:16.758Z,10.73
2019-03-25T06:04:47.667Z,8.73
2019-03-25T06:07:18.566Z,9.40
2019-03-25T06:09:49.507Z,9.70
2019-03-25T06:12:20.414Z,8.77
2019-03-25T06:14:51.343Z,7.90
2019-03-25T06:17:22.315Z,7.63
2019-03-25T06:19:53.233Z,9.70
2019-03-25T06:22:24.198Z,10.00
2019-03-25T06:24:55.289Z,21.27
2019-03-25T06:27:26.187Z,36.43
2019-03-25T06:29:57.122Z,26.03
2019-03-25T06:32:28.026Z,18.27
2019-03-25T06:34:58.955Z,13.83
2019-03-25T06:37:29.856Z,9.60
2019-03-25T06:40:01.604Z,9.00
2019-03-25T06:42:32.512Z,8.40
2019-03-25T06:45:03.536Z,7.00
2019-03-25T06:47:34.454Z,6.00
2019-03-25T06:50:07.932Z,7.23
2019-03-25T06:52:38.854Z,9.20
2019-03-25T06:55:10.907Z,11.00
2019-03-25T06:57:42.020Z,7.67
2019-03-25T07:00:13.350Z,7.60
2019-03-25T07:02:44.251Z,6.67
2019-03-25T07:05:16.169Z,4.60
2019-03-25T07:07:47.074Z,5.23
2019-03-25T07:10:36.719Z,4.37
2019-03-25T07:13:07.719Z,3.63
2019-03-25T07:15:39.440Z,3.57
2019-03-25T07:18:10.370Z,6.90
2019-03-25T07:20:41.276Z,9.60
2019-03-25T07:23:12.168Z,8.47
2019-03-25T07:25:43.898Z,6.57
2019-03-25T07:28:15.610Z,4.43
2019-03-25T07:30:46.528Z,5.03
2019-03-25T07:33:17.425Z,6.10
2019-03-25T07:35:48.361Z,6.50
2019-03-25T07:38:19.269Z,6.60
2019-03-25T07:40:50.493Z,7.30
2019-03-25T07:43:21.387Z,7.60
2019-03-25T07:45:52.314Z,7.03
2019-03-25T07:48:23.223Z,8.50
2019-03-25T07:50:54.150Z,9.17
2019-03-25T07:53:25.064Z,9.27
2019-03-25T07:55:56.163Z,8.73
2019-03-25T07:58:27.037Z,8.90
2019-03-25T08:00:57.958Z,9.30
2019-03-25T08:03:28.851Z,8.57
2019-03-25T08:05:59.788Z,9.60
2019-03-25T08:08:30.695Z,11.90
2019-03-25T08:11:01.659Z,11.37
2019-03-25T08:13:32.580Z,11.63
2019-03-25T08:16:03.636Z,11.57
2019-03-25T08:18:34.572Z,10.60
2019-03-25T08:21:06.426Z,9.20
2019-03-25T08:23:37.337Z,13.47
2019-03-25T08:26:09.093Z,8.90
2019-03-25T08:28:40.751Z,6.80
2019-03-25T08:31:11.748Z,6.70
2019-03-25T08:33:42.650Z,6.17
2019-03-25T08:36:13.602Z,10.23
2019-03-25T08:38:44.540Z,10.00
2019-03-25T08:41:15.440Z,9.43
2019-03-25T08:43:47.186Z,7.53
2019-03-25T08:46:18.082Z,8.60
2019-03-25T08:48:48.996Z,12.93
2019-03-25T08:51:19.894Z,7.20
2019-03-25T08:53:50.816Z,6.70
2019-03-25T08:56:21.734Z,6.07
2019-03-25T08:58:52.672Z,7.23
2019-03-25T09:01:23.560Z,12.97
2019-03-25T09:03:54.491Z,6.93
2019-03-25T09:06:25.384Z,7.63
2019-03-25T09:08:56.304Z,6.33
2019-03-25T09:11:27.228Z,6.77
2019-03-25T09:13:58.230Z,14.53
2019-03-25T09:16:29.150Z,12.23
2019-03-25T09:19:00.074Z,12.40
2019-03-25T09:21:30.985Z,14.03
2019-03-25T09:24:01.923Z,7.37
2019-03-25T09:26:36.381Z,5.33
2019-03-25T09:29:08.934Z,6.30
2019-03-25T09:31:39.853Z,5.93
2019-03-25T09:34:10.868Z,6.45
2019-03-25T09:36:41.762Z,6.50
2019-03-25T09:39:12.756Z,6.77
2019-03-25T09:41:43.650Z,5.15
2019-03-25T09:44:14.627Z,4.40
2019-03-25T09:46:47.410Z,4.70
2019-03-25T09:49:18.329Z,5.03
2019-03-25T09:51:49.292Z,4.87
2019-03-25T09:54:20.229Z,11.03
2019-03-25T09:56:51.151Z,6.97
2019-03-25T09:59:22.984Z,15.63
2019-03-25T10:01:53.916Z,10.63
2019-03-25T10:04:24.851Z,7.92
2019-03-25T10:06:55.769Z,9.88
2019-03-25T10:09:26.707Z,8.38
2019-03-25T10:11:57.614Z,10.90
2019-03-25T10:14:31.437Z,5.47
2019-03-25T10:17:02.336Z,6.10
2019-03-25T10:19:33.289Z,5.45
2019-03-25T10:22:04.200Z,7.62
2019-03-25T10:24:35.126Z,6.50
2019-03-25T10:27:06.023Z,5.87
2019-03-25T10:29:39.381Z,5.92
2019-03-25T10:32:10.292Z,5.37
2019-03-25T10:34:41.221Z,8.13
2019-03-25T10:37:12.325Z,6.95
2019-03-25T10:39:43.264Z,10.70
2019-03-25T10:42:14.173Z,10.78
2019-03-25T10:44:46.000Z,7.42
2019-03-25T10:47:16.897Z,2.52
2019-03-25T10:49:47.851Z,2.67
2019-03-25T10:52:18.755Z,5.35
2019-03-25T10:54:49.787Z,2.92
2019-03-25T10:57:20.760Z,2.40
2019-03-25T10:59:52.518Z,2.58
2019-03-25T11:02:23.402Z,4.10
2019-03-25T11:04:54.338Z,3.87
2019-03-25T11:07:25.342Z,3.93
2019-03-25T11:09:56.306Z,4.12
2019-03-25T11:12:27.273Z,5.23
2019-03-25T11:14:59.829Z,5.72
2019-03-25T11:17:30.725Z,5.53
2019-03-25T11:20:01.667Z,4.50
2019-03-25T11:22:32.579Z,5.42
2019-03-25T11:25:03.815Z,4.20
2019-03-25T11:27:34.706Z,8.83
2019-03-25T11:30:11.882Z,3.55
2019-03-25T11:32:42.792Z,5.80
2019-03-25T11:35:13.929Z,7.50
2019-03-25T11:37:44.835Z,6.63
2019-03-25T11:40:16.471Z,10.10
2019-03-25T11:42:47.373Z,10.17
2019-03-25T11:45:20.775Z,13.73
2019-03-25T11:47:51.671Z,15.83
2019-03-25T11:50:22.602Z,10.90
2019-03-25T11:52:53.495Z,6.70
2019-03-25T11:55:24.422Z,12.87
2019-03-25T11:57:55.337Z,13.20
2019-03-25T12:00:27.887Z,9.77
2019-03-25T12:02:58.783Z,7.03
2019-03-25T12:05:29.714Z,4.47
2019-03-25T12:08:00.592Z,5.90
2019-03-25T12:10:31.519Z,5.67
2019-03-25T12:13:02.413Z,4.73
2019-03-25T12:15:33.507Z,5.43
2019-03-25T12:18:04.638Z,6.10
2019-03-25T12:20:35.553Z,5.90
2019-03-25T12:23:06.454Z,5.80
2019-03-25T12:25:37.364Z,5.47
2019-03-25T12:28:08.278Z,8.63
2019-03-25T12:30:40.802Z,6.23
2019-03-25T12:33:11.694Z,7.23
2019-03-25T12:35:42.725Z,6.50
2019-03-25T12:38:13.629Z,6.77
2019-03-25T12:40:44.644Z,8.17
2019-03-25T12:43:15.556Z,6.50
2019-03-25T12:45:47.297Z,6.37
2019-03-25T12:48:18.183Z,5.73
2019-03-25T12:50:49.113Z,5.20
2019-03-25T12:53:20.009Z,4.67
2019-03-25T12:55:50.991Z,5.57
2019-03-25T12:58:21.889Z,4.60
2019-03-25T13:00:53.635Z,6.00
2019-03-25T13:03:24.519Z,6.13
2019-03-25T13:05:55.547Z,7.33
2019-03-25T13:08:32.978Z,7.43
2019-03-25T13:10:59.142Z,8.37
2019-03-25T13:13:30.087Z,7.73
2019-03-25T13:16:01.857Z,7.47
2019-03-25T13:18:32.812Z,5.37
2019-03-25T13:21:03.724Z,6.33
2019-03-25T13:23:34.616Z,6.43
2019-03-25T13:26:05.548Z,6.93
2019-03-25T13:28:36.446Z,5.40
2019-03-25T13:31:09.066Z,6.50
2019-03-25T13:33:40.032Z,5.13
2019-03-25T13:36:10.988Z,6.47
2019-03-25T13:38:41.887Z,5.60
2019-03-25T13:41:13.750Z,5.57
2019-03-25T13:43:44.644Z,4.43
2019-03-25T13:46:15.597Z,8.33
2019-03-25T13:48:46.489Z,5.97
2019-03-25T13:51:19.284Z,5.73
2019-03-25T13:53:50.185Z,9.37
2019-03-25T13:56:21.131Z,9.80
2019-03-25T13:58:52.038Z,7.17
2019-03-25T14:01:22.981Z,7.33
2019-03-25T14:03:53.879Z,8.47
2019-03-25T14:06:24.805Z,6.83
2019-03-25T14:08:55.890Z,9.13
2019-03-25T14:11:26.888Z,7.10
2019-03-25T14:14:00.117Z,6.77
2019-03-25T14:16:31.213Z,6.33
2019-03-25T14:19:02.116Z,7.00
2019-03-25T14:21:33.043Z,13.90
2019-03-25T14:24:03.950Z,6.47
2019-03-25T14:26:34.863Z,8.27
2019-03-25T14:29:05.820Z,5.33
2019-03-25T14:31:37.666Z,5.80
2019-03-25T14:34:08.568Z,4.73
2019-03-25T14:36:39.494Z,5.20
2019-03-25T14:39:10.376Z,7.03
2019-03-25T14:41:41.370Z,4.43
2019-03-25T14:44:12.330Z,5.13
2019-03-25T14:46:44.084Z,6.57
2019-03-25T14:49:14.976Z,6.60
2019-03-25T14:51:45.909Z,4.90
2019-03-25T14:54:16.816Z,27.90
2019-03-25T14:56:47.752Z,40.77
2019-03-25T14:59:18.645Z,38.80
2019-03-25T15:01:50.388Z,6.47
2019-03-25T15:04:21.280Z,5.47
2019-03-25T15:06:52.205Z,4.60
2019-03-25T15:09:23.098Z,7.17
2019-03-25T15:11:54.032Z,8.17
2019-03-25T15:14:24.927Z,4.87
2019-03-25T15:16:56.695Z,4.87
2019-03-25T15:19:27.601Z,8.23
2019-03-25T15:21:58.513Z,4.60
2019-03-25T15:24:29.415Z,4.40
2019-03-25T15:27:00.335Z,3.40
2019-03-25T15:29:31.219Z,4.23
2019-03-25T15:32:04.447Z,4.33
2019-03-25T15:34:35.299Z,3.87
2019-03-25T15:37:06.225Z,4.60
2019-03-25T15:39:46.399Z,4.60
2019-03-25T15:42:09.742Z,6.60
2019-03-25T15:44:40.644Z,5.20
2019-03-25T15:47:13.480Z,5.47
2019-03-25T15:49:44.395Z,5.97
2019-03-25T15:52:15.314Z,4.93
2019-03-25T15:54:46.207Z,6.00
2019-03-25T15:57:17.156Z,5.33
2019-03-25T15:59:48.041Z,4.50
2019-03-25T16:02:19.806Z,3.20
2019-03-25T16:04:52.774Z,5.93
2019-03-25T16:07:23.780Z,6.40
2019-03-25T16:09:54.671Z,4.10
2019-03-25T16:12:25.609Z,4.77
2019-03-25T16:14:56.491Z,8.90
2019-03-25T16:17:27.583Z,8.43
2019-03-25T16:19:58.480Z,8.57
2019-03-25T16:22:29.400Z,8.77
2019-03-25T16:25:00.447Z,9.10
2019-03-25T16:27:31.484Z,10.87
2019-03-25T16:30:02.391Z,15.50
2019-03-25T16:32:35.107Z,14.67
2019-03-25T16:35:06.884Z,11.00
2019-03-25T16:37:37.810Z,25.30
2019-03-25T16:40:08.922Z,18.93
2019-03-25T16:42:40.284Z,28.03
2019-03-25T16:45:11.942Z,19.40
2019-03-25T16:47:43.780Z,14.20
2019-03-25T16:50:14.698Z,44.10
2019-03-25T16:52:45.700Z,25.13
2019-03-25T16:55:16.609Z,15.17
2019-03-25T16:57:47.544Z,62.67
2019-03-25T17:00:27.353Z,60.77
2019-03-25T17:02:54.228Z,31.30
2019-03-25T17:05:25.155Z,152.57
2019-03-25T17:07:56.099Z,246.07
2019-03-25T17:10:27.067Z,35.43
2019-03-25T17:12:58.006Z,114.03
2019-03-25T17:15:31.320Z,172.67
2019-03-25T17:18:04.744Z,152.50
2019-03-25T17:20:35.656Z,86.20
2019-03-25T17:23:06.585Z,38.80
2019-03-25T17:25:37.504Z,78.60
2019-03-25T17:28:08.428Z,37.23
2019-03-25T17:30:39.324Z,31.30
2019-03-25T17:33:12.189Z,34.53
2019-03-25T17:35:43.084Z,22.60
2019-03-25T17:38:14.021Z,36.40
2019-03-25T17:40:45.042Z,36.10
2019-03-25T17:43:15.989Z,25.63
2019-03-25T17:45:46.885Z,26.60
2019-03-25T17:48:20.455Z,24.63
2019-03-25T17:50:52.902Z,11.87
2019-03-25T17:53:23.176Z,21.60
2019-03-25T17:55:54.082Z,31.13
2019-03-25T17:58:25.018Z,21.17
2019-03-25T18:01:00.949Z,20.77
2019-03-25T18:03:32.799Z,29.50
2019-03-25T18:06:06.479Z,22.13
2019-03-25T18:08:37.411Z,29.20
2019-03-25T18:11:08.308Z,23.13
2019-03-25T18:13:39.244Z,11.33
2019-03-25T18:16:10.217Z,21.67
2019-03-25T18:18:41.986Z,15.93
2019-03-25T18:21:12.902Z,29.50
2019-03-25T18:23:44.641Z,37.60
2019-03-25T18:26:15.576Z,47.43
2019-03-25T18:28:46.519Z,32.97
2019-03-25T18:31:17.428Z,16.37
2019-03-25T18:33:49.246Z,18.83
2019-03-25T18:36:20.181Z,15.97
2019-03-25T18:38:51.169Z,20.00
2019-03-25T18:41:22.154Z,15.50
2019-03-25T18:43:53.092Z,17.77
2019-03-25T18:46:23.992Z,15.03
2019-03-25T18:48:55.763Z,15.43
2019-03-25T18:51:26.666Z,19.83
2019-03-25T18:53:57.587Z,18.77
2019-03-25T18:56:28.506Z,17.73
2019-03-25T18:58:59.454Z,11.17
2019-03-25T19:01:30.470Z,11.50
2019-03-25T19:04:02.227Z,9.23
2019-03-25T19:06:33.238Z,8.83
2019-03-25T19:09:05.665Z,8.70
2019-03-25T19:11:36.575Z,13.13
2019-03-25T19:14:07.522Z,20.03
2019-03-25T19:16:38.402Z,14.07
2019-03-25T19:19:09.454Z,14.37
2019-03-25T19:21:40.537Z,14.20
2019-03-25T19:24:11.631Z,19.30
2019-03-25T19:26:42.529Z,115.87
2019-03-25T19:29:13.501Z,80.13
2019-03-25T19:31:46.260Z,31.43
2019-03-25T19:34:18.811Z,18.07
2019-03-25T19:36:49.711Z,13.13
2019-03-25T19:39:20.658Z,18.73
2019-03-25T19:41:51.671Z,18.53
2019-03-25T19:44:22.695Z,11.33
2019-03-25T19:46:53.550Z,17.57
2019-03-25T19:49:25.358Z,10.30
2019-03-25T19:51:56.278Z,17.00
2019-03-25T19:54:27.222Z,7.43
2019-03-25T19:56:58.118Z,5.30
2019-03-25T19:59:29.034Z,5.27
2019-03-25T20:01:59.969Z,5.50
2019-03-25T20:04:31.722Z,10.60
2019-03-25T20:07:02.671Z,4.47
2019-03-25T20:09:33.564Z,5.70
2019-03-25T20:12:04.478Z,6.23
2019-03-25T20:14:35.497Z,4.10
2019-03-25T20:17:06.423Z,7.57
2019-03-25T20:19:38.084Z,6.17
2019-03-25T20:22:09.134Z,9.87
2019-03-25T20:24:40.853Z,11.13
2019-03-25T20:27:11.772Z,26.43
2019-03-25T20:29:42.764Z,27.87
2019-03-25T20:32:31.867Z,9.37
2019-03-25T20:35:07.391Z,6.07
2019-03-25T20:37:38.330Z,6.37
2019-03-25T20:40:09.587Z,8.80
2019-03-25T20:42:40.511Z,7.87
2019-03-25T20:45:11.790Z,7.80
2019-03-25T20:47:42.738Z,11.37
2019-03-25T20:50:14.987Z,8.73
2019-03-25T20:52:45.872Z,9.53
2019-03-25T20:55:18.436Z,7.77
2019-03-25T20:57:49.369Z,8.77
2019-03-25T21:00:23.269Z,7.30
2019-03-25T21:02:54.214Z,7.03
2019-03-25T21:05:25.340Z,9.00
2019-03-25T21:07:56.253Z,8.87
2019-03-25T21:10:27.208Z,9.80
2019-03-25T21:12:58.079Z,8.10
2019-03-25T21:15:28.999Z,21.53
2019-03-25T21:17:59.948Z,5.83
2019-03-25T21:20:31.724Z,14.60
2019-03-25T21:23:02.649Z,23.30
2019-03-25T21:25:33.669Z,4.00
2019-03-25T21:28:04.519Z,3.33
2019-03-25T21:30:47.373Z,7.57
2019-03-25T21:33:08.071Z,10.30
2019-03-25T21:35:40.620Z,5.73
2019-03-25T21:38:11.537Z,5.40
2019-03-25T21:40:42.505Z,4.27
2019-03-25T21:43:13.475Z,4.80
2019-03-25T21:45:44.422Z,4.03
2019-03-25T21:48:15.329Z,4.10
2019-03-25T21:50:47.922Z,4.80
2019-03-25T21:53:18.922Z,4.03
2019-03-25T21:55:49.853Z,5.10
2019-03-25T21:58:20.845Z,4.43
2019-03-25T22:00:51.866Z,4.63
2019-03-25T22:03:22.794Z,4.27
2019-03-25T22:05:53.753Z,4.07
2019-03-25T22:08:24.639Z,5.33
2019-03-25T22:10:55.563Z,5.83
2019-03-25T22:13:26.528Z,5.90
2019-03-25T22:15:57.451Z,7.73
2019-03-25T22:18:30.735Z,5.93
2019-03-25T22:21:01.796Z,7.43
2019-03-25T22:23:32.693Z,8.17
2019-03-25T22:26:03.609Z,9.17
2019-03-25T22:28:34.509Z,7.93
2019-03-25T22:31:05.434Z,5.70
2019-03-25T22:33:36.317Z,4.93
2019-03-25T22:36:08.865Z,5.60
2019-03-25T22:38:39.750Z,4.90
2019-03-25T22:41:10.674Z,4.20
2019-03-25T22:43:41.563Z,3.67
2019-03-25T22:46:12.479Z,4.37
2019-03-25T22:48:43.382Z,3.83
2019-03-25T22:51:15.251Z,4.50
2019-03-25T22:53:46.168Z,5.37
2019-03-25T22:56:17.090Z,8.50
2019-03-25T22:58:47.984Z,8.87
2019-03-25T23:01:19.823Z,9.10
2019-03-25T23:03:50.717Z,9.60
2019-03-25T23:06:21.664Z,10.10
2019-03-25T23:08:52.623Z,8.03
2019-03-25T23:11:23.553Z,8.07
2019-03-25T23:13:54.463Z,6.77
2019-03-25T23:16:30.295Z,6.00
2019-03-25T23:19:01.114Z,5.37
2019-03-25T23:21:32.052Z,5.37
2019-03-25T23:24:02.951Z,5.67
2019-03-25T23:26:33.890Z,7.50
2019-03-25T23:29:04.856Z,7.67
2019-03-25T23:31:35.802Z,9.23
2019-03-25T23:34:06.685Z,10.87
2019-03-25T23:36:39.211Z,10.80
2019-03-25T23:39:10.119Z,11.87
2019-03-25T23:41:41.065Z,13.20
2019-03-25T23:44:11.960Z,13.00
2019-03-25T23:46:42.885Z,14.43
2019-03-25T23:49:13.791Z,13.27
2019-03-25T23:51:45.569Z,10.47
2019-03-25T23:54:16.548Z,10.90
2019-03-25T23:56:47.473Z,9.13
2019-03-25T23:59:18.380Z,7.90
